KEYW/EYW METAR and TAF weather

Enter ICAO airport designator
Station Type Date Time Source
KEYW METAR 2020/07/10 14:53 UTC NOAA

KEYW 101453Z 31007KT 10SM CLR 32/24 A3002 RMK AO2 SLP165 T03220244 53006


Station Type Date Time Source
KEYW Decoded METAR 2020/07/10 14:53 UTC NOAA

KEY WEST INTERNATIONAL AIRPORT , FL, United States (KEYW) 24-33N 81-46W 5M
Jul 10, 2020 - 10:53 AM EDT / 2020.07.10 1453 UTC
Wind: from the NW (310 degrees) at 8 MPH (7 KT):0
Visibility: 10 mile(s):0
Sky conditions: clear
Temperature: 90.0 F (32.2 C)
Heat index: 101.5 F (38.6 C):1
Dew Point: 75.9 F (24.4 C)
Relative Humidity: 63%
Pressure (altimeter): 30.02 in. Hg (1016 hPa)
Pressure tendency: 0.02 inches (0.6 hPa) higher than three hours ago
ob: KEYW 101453Z 31007KT 10SM CLR 32/24 A3002 RMK AO2 SLP165 T03220244 53006
cycle: 15

Station Type Date Time Source
KEYW TAF 2020/07/10 12:42 UTC NOAA

TAF KEYW 101141Z 1012/1112 30006KT P6SM FEW025 SCT200

Example: see airport list